sensor_id;sensor_type;location;lat;lon;timestamp;temperature;humidity
16315;DHT22;8266;52.150;4.768;2023-05-08T00:02:08;17.20;99.90
16315;DHT22;8266;52.150;4.768;2023-05-08T00:04:35;17.10;99.90
16315;DHT22;8266;52.150;4.768;2023-05-08T00:07:03;17.20;99.90
16315;DHT22;8266;52.150;4.768;2023-05-08T00:09:30;17.20;99.90
16315;DHT22;8266;52.150;4.768;2023-05-08T00:11:57;17.20;99.90
16315;DHT22;8266;52.150;4.768;2023-05-08T00:14:24;17.20;99.90
16315;DHT22;8266;52.150;4.768;2023-05-08T00:16:51;17.20;99.90
16315;DHT22;8266;52.150;4.768;2023-05-08T00:19:18;17.20;99.90
16315;DHT22;8266;52.150;4.768;2023-05-08T00:21:45;17.20;99.90
16315;DHT22;8266;52.150;4.768;2023-05-08T00:24:13;17.20;99.90
16315;DHT22;8266;52.150;4.768;2023-05-08T00:26:40;17.20;99.90
16315;DHT22;8266;52.150;4.768;2023-05-08T00:29:08;17.30;99.90
16315;DHT22;8266;52.150;4.768;2023-05-08T00:31:36;17.30;99.90
16315;DHT22;8266;52.150;4.768;2023-05-08T00:34:02;17.30;99.90
16315;DHT22;8266;52.150;4.768;2023-05-08T00:36:29;17.40;99.90
16315;DHT22;8266;52.150;4.768;2023-05-08T00:38:57;17.40;99.90
16315;DHT22;8266;52.150;4.768;2023-05-08T00:41:25;17.40;99.90
16315;DHT22;8266;52.150;4.768;2023-05-08T00:43:52;17.50;99.90
16315;DHT22;8266;52.150;4.768;2023-05-08T00:46:19;17.50;99.90
16315;DHT22;8266;52.150;4.768;2023-05-08T00:48:47;17.50;99.90
16315;DHT22;8266;52.150;4.768;2023-05-08T00:51:14;17.50;99.90
16315;DHT22;8266;52.150;4.768;2023-05-08T00:53:42;17.50;99.90
16315;DHT22;8266;52.150;4.768;2023-05-08T00:56:11;17.60;99.90
16315;DHT22;8266;52.150;4.768;2023-05-08T00:58:40;17.60;99.90
16315;DHT22;8266;52.150;4.768;2023-05-08T01:01:08;17.60;99.90
16315;DHT22;8266;52.150;4.768;2023-05-08T01:03:35;17.60;99.90
16315;DHT22;8266;52.150;4.768;2023-05-08T01:06:04;17.60;99.90
16315;DHT22;8266;52.150;4.768;2023-05-08T01:08:31;17.60;99.90
16315;DHT22;8266;52.150;4.768;2023-05-08T01:11:05;17.60;99.90
16315;DHT22;8266;52.150;4.768;2023-05-08T01:13:46;17.60;99.90
16315;DHT22;8266;52.150;4.768;2023-05-08T01:16:17;17.60;99.90
16315;DHT22;8266;52.150;4.768;2023-05-08T01:18:50;17.70;99.90
16315;DHT22;8266;52.150;4.768;2023-05-08T01:21:26;17.70;99.90
16315;DHT22;8266;52.150;4.768;2023-05-08T01:24:30;17.70;99.90
16315;DHT22;8266;52.150;4.768;2023-05-08T01:27:25;17.70;99.90
16315;DHT22;8266;52.150;4.768;2023-05-08T01:30:23;17.70;99.90
16315;DHT22;8266;52.150;4.768;2023-05-08T01:33:00;17.70;99.90
16315;DHT22;8266;52.150;4.768;2023-05-08T01:35:31;17.70;99.90
16315;DHT22;8266;52.150;4.768;2023-05-08T01:38:06;17.70;99.90
16315;DHT22;8266;52.150;4.768;2023-05-08T01:40:43;17.70;99.90
16315;DHT22;8266;52.150;4.768;2023-05-08T01:43:17;17.80;99.90
16315;DHT22;8266;52.150;4.768;2023-05-08T01:45:48;17.70;99.90
16315;DHT22;8266;52.150;4.768;2023-05-08T01:48:21;17.70;99.90
16315;DHT22;8266;52.150;4.768;2023-05-08T01:50:54;17.70;99.90
16315;DHT22;8266;52.150;4.768;2023-05-08T01:53:25;17.60;99.90
16315;DHT22;8266;52.150;4.768;2023-05-08T01:55:57;17.60;99.90
16315;DHT22;8266;52.150;4.768;2023-05-08T01:58:25;17.60;99.90
16315;DHT22;8266;52.150;4.768;2023-05-08T02:00:54;17.60;99.90
16315;DHT22;8266;52.150;4.768;2023-05-08T02:03:24;17.50;99.90
16315;DHT22;8266;52.150;4.768;2023-05-08T02:05:51;17.50;99.90
16315;DHT22;8266;52.150;4.768;2023-05-08T02:08:21;17.50;99.90
16315;DHT22;8266;52.150;4.768;2023-05-08T02:10:50;17.50;99.90
16315;DHT22;8266;52.150;4.768;2023-05-08T02:13:18;17.40;99.90
16315;DHT22;8266;52.150;4.768;2023-05-08T02:15:47;17.40;99.90
16315;DHT22;8266;52.150;4.768;2023-05-08T02:18:19;17.40;99.90
16315;DHT22;8266;52.150;4.768;2023-05-08T02:20:49;17.40;99.90
16315;DHT22;8266;52.150;4.768;2023-05-08T02:23:16;17.40;99.90
16315;DHT22;8266;52.150;4.768;2023-05-08T02:25:44;17.40;99.90
16315;DHT22;8266;52.150;4.768;2023-05-08T02:28:14;17.40;99.90
16315;DHT22;8266;52.150;4.768;2023-05-08T02:30:42;17.30;99.90
16315;DHT22;8266;52.150;4.768;2023-05-08T02:33:11;17.30;99.90
16315;DHT22;8266;52.150;4.768;2023-05-08T02:35:41;17.30;99.90
16315;DHT22;8266;52.150;4.768;2023-05-08T02:38:11;17.30;99.90
16315;DHT22;8266;52.150;4.768;2023-05-08T02:40:43;17.30;99.90
16315;DHT22;8266;52.150;4.768;2023-05-08T02:43:11;17.30;99.90
16315;DHT22;8266;52.150;4.768;2023-05-08T02:45:42;17.30;99.90
16315;DHT22;8266;52.150;4.768;2023-05-08T02:48:16;17.20;99.90
16315;DHT22;8266;52.150;4.768;2023-05-08T02:50:52;17.20;99.90
16315;DHT22;8266;52.150;4.768;2023-05-08T02:53:25;17.20;99.90
16315;DHT22;8266;52.150;4.768;2023-05-08T02:56:01;17.20;99.90
16315;DHT22;8266;52.150;4.768;2023-05-08T02:58:33;17.20;99.90
16315;DHT22;8266;52.150;4.768;2023-05-08T03:01:05;17.10;99.90
16315;DHT22;8266;52.150;4.768;2023-05-08T03:03:37;17.10;99.90
16315;DHT22;8266;52.150;4.768;2023-05-08T03:06:08;17.10;99.90
16315;DHT22;8266;52.150;4.768;2023-05-08T03:08:42;17.10;99.90
16315;DHT22;8266;52.150;4.768;2023-05-08T03:11:13;17.10;99.90
16315;DHT22;8266;52.150;4.768;2023-05-08T03:13:46;17.10;99.90
16315;DHT22;8266;52.150;4.768;2023-05-08T03:16:27;17.10;99.90
16315;DHT22;8266;52.150;4.768;2023-05-08T03:19:18;17.00;99.90
16315;DHT22;8266;52.150;4.768;2023-05-08T03:21:49;17.10;99.90
16315;DHT22;8266;52.150;4.768;2023-05-08T03:24:19;17.10;99.90
16315;DHT22;8266;52.150;4.768;2023-05-08T03:26:48;17.10;99.90
16315;DHT22;8266;52.150;4.768;2023-05-08T03:29:15;17.10;99.90
16315;DHT22;8266;52.150;4.768;2023-05-08T03:31:44;17.10;99.90
16315;DHT22;8266;52.150;4.768;2023-05-08T03:34:12;17.10;99.90
16315;DHT22;8266;52.150;4.768;2023-05-08T03:36:40;17.10;99.90
16315;DHT22;8266;52.150;4.768;2023-05-08T03:39:07;17.10;99.90
16315;DHT22;8266;52.150;4.768;2023-05-08T03:41:36;17.10;99.90
16315;DHT22;8266;52.150;4.768;2023-05-08T03:44:03;17.10;99.90
16315;DHT22;8266;52.150;4.768;2023-05-08T03:46:32;17.10;99.90
16315;DHT22;8266;52.150;4.768;2023-05-08T03:49:01;17.10;99.90
16315;DHT22;8266;52.150;4.768;2023-05-08T03:51:30;17.20;99.90
16315;DHT22;8266;52.150;4.768;2023-05-08T03:53:57;17.20;99.90
16315;DHT22;8266;52.150;4.768;2023-05-08T03:56:24;17.20;99.90
16315;DHT22;8266;52.150;4.768;2023-05-08T03:58:58;17.20;99.90
16315;DHT22;8266;52.150;4.768;2023-05-08T04:01:31;17.20;99.90
16315;DHT22;8266;52.150;4.768;2023-05-08T04:04:08;17.20;99.90
16315;DHT22;8266;52.150;4.768;2023-05-08T04:06:39;17.20;99.90
16315;DHT22;8266;52.150;4.768;2023-05-08T04:09:17;17.20;99.90
16315;DHT22;8266;52.150;4.768;2023-05-08T04:11:53;17.20;99.90
16315;DHT22;8266;52.150;4.768;2023-05-08T04:14:26;17.20;99.90
16315;DHT22;8266;52.150;4.768;2023-05-08T04:17:00;17.20;99.90
16315;DHT22;8266;52.150;4.768;2023-05-08T04:19:32;17.20;99.90
16315;DHT22;8266;52.150;4.768;2023-05-08T04:22:06;17.20;99.90
16315;DHT22;8266;52.150;4.768;2023-05-08T04:24:38;17.20;99.90
16315;DHT22;8266;52.150;4.768;2023-05-08T04:27:06;17.20;99.90
16315;DHT22;8266;52.150;4.768;2023-05-08T04:29:36;17.20;99.90
16315;DHT22;8266;52.150;4.768;2023-05-08T04:32:04;17.20;99.90
16315;DHT22;8266;52.150;4.768;2023-05-08T04:34:32;17.20;99.90
16315;DHT22;8266;52.150;4.768;2023-05-08T04:36:59;17.20;99.90
16315;DHT22;8266;52.150;4.768;2023-05-08T04:39:26;17.20;99.90
16315;DHT22;8266;52.150;4.768;2023-05-08T04:41:53;17.20;99.90
16315;DHT22;8266;52.150;4.768;2023-05-08T04:44:27;17.20;99.90
16315;DHT22;8266;52.150;4.768;2023-05-08T04:46:55;17.20;99.90
16315;DHT22;8266;52.150;4.768;2023-05-08T04:49:22;17.20;99.90
16315;DHT22;8266;52.150;4.768;2023-05-08T04:51:49;17.20;99.90
16315;DHT22;8266;52.150;4.768;2023-05-08T04:54:16;17.20;99.90
16315;DHT22;8266;52.150;4.768;2023-05-08T04:56:43;17.20;99.90
16315;DHT22;8266;52.150;4.768;2023-05-08T04:59:10;17.20;99.90
16315;DHT22;8266;52.150;4.768;2023-05-08T05:01:37;17.20;99.90
16315;DHT22;8266;52.150;4.768;2023-05-08T05:04:05;17.20;99.90
16315;DHT22;8266;52.150;4.768;2023-05-08T05:06:32;17.20;99.90
16315;DHT22;8266;52.150;4.768;2023-05-08T05:08:59;17.20;99.90
16315;DHT22;8266;52.150;4.768;2023-05-08T05:11:26;17.20;99.90
16315;DHT22;8266;52.150;4.768;2023-05-08T05:13:53;17.30;99.90
16315;DHT22;8266;52.150;4.768;2023-05-08T05:16:20;17.30;99.90
16315;DHT22;8266;52.150;4.768;2023-05-08T05:18:47;17.30;99.90
16315;DHT22;8266;52.150;4.768;2023-05-08T05:21:15;17.40;99.90
16315;DHT22;8266;52.150;4.768;2023-05-08T05:23:42;17.40;99.90
16315;DHT22;8266;52.150;4.768;2023-05-08T05:26:09;17.40;99.90
16315;DHT22;8266;52.150;4.768;2023-05-08T05:28:36;17.40;99.90
16315;DHT22;8266;52.150;4.768;2023-05-08T05:31:03;17.40;99.90
16315;DHT22;8266;52.150;4.768;2023-05-08T05:33:30;17.50;99.90
16315;DHT22;8266;52.150;4.768;2023-05-08T05:35:57;17.50;99.90
16315;DHT22;8266;52.150;4.768;2023-05-08T05:38:26;17.50;99.90
16315;DHT22;8266;52.150;4.768;2023-05-08T05:40:53;17.60;99.90
16315;DHT22;8266;52.150;4.768;2023-05-08T05:43:20;17.60;99.90
16315;DHT22;8266;52.150;4.768;2023-05-08T05:45:47;17.60;99.90
16315;DHT22;8266;52.150;4.768;2023-05-08T05:48:14;17.60;99.90
16315;DHT22;8266;52.150;4.768;2023-05-08T05:50:41;17.60;99.90
16315;DHT22;8266;52.150;4.768;2023-05-08T05:53:08;17.60;99.90
16315;DHT22;8266;52.150;4.768;2023-05-08T05:55:37;17.70;99.90
16315;DHT22;8266;52.150;4.768;2023-05-08T05:58:03;17.70;99.90
16315;DHT22;8266;52.150;4.768;2023-05-08T06:00:30;17.70;99.90
16315;DHT22;8266;52.150;4.768;2023-05-08T06:02:57;17.70;99.90
16315;DHT22;8266;52.150;4.768;2023-05-08T06:05:24;17.80;99.90
16315;DHT22;8266;52.150;4.768;2023-05-08T06:07:52;17.80;99.90
16315;DHT22;8266;52.150;4.768;2023-05-08T06:10:19;17.80;99.90
16315;DHT22;8266;52.150;4.768;2023-05-08T06:12:47;17.90;99.90
16315;DHT22;8266;52.150;4.768;2023-05-08T06:15:14;17.90;99.90
16315;DHT22;8266;52.150;4.768;2023-05-08T06:17:41;18.00;99.90
16315;DHT22;8266;52.150;4.768;2023-05-08T06:20:08;17.90;99.90
16315;DHT22;8266;52.150;4.768;2023-05-08T06:22:35;17.90;99.90
16315;DHT22;8266;52.150;4.768;2023-05-08T06:25:04;17.90;99.90
16315;DHT22;8266;52.150;4.768;2023-05-08T06:27:33;17.90;99.90
16315;DHT22;8266;52.150;4.768;2023-05-08T06:30:02;17.90;99.90
16315;DHT22;8266;52.150;4.768;2023-05-08T06:32:32;17.90;99.90
16315;DHT22;8266;52.150;4.768;2023-05-08T06:34:59;17.90;99.90
16315;DHT22;8266;52.150;4.768;2023-05-08T06:37:26;17.90;99.90
16315;DHT22;8266;52.150;4.768;2023-05-08T06:39:53;17.90;99.90
16315;DHT22;8266;52.150;4.768;2023-05-08T06:42:20;17.90;99.90
16315;DHT22;8266;52.150;4.768;2023-05-08T06:44:47;18.00;99.90
16315;DHT22;8266;52.150;4.768;2023-05-08T06:47:17;18.10;99.90
16315;DHT22;8266;52.150;4.768;2023-05-08T06:49:44;18.10;99.90
16315;DHT22;8266;52.150;4.768;2023-05-08T06:52:11;18.10;99.90
16315;DHT22;8266;52.150;4.768;2023-05-08T06:54:38;18.20;99.90
16315;DHT22;8266;52.150;4.768;2023-05-08T06:57:05;18.20;99.90
16315;DHT22;8266;52.150;4.768;2023-05-08T06:59:33;18.30;99.90
16315;DHT22;8266;52.150;4.768;2023-05-08T07:02:00;18.30;99.90
16315;DHT22;8266;52.150;4.768;2023-05-08T07:04:28;18.30;99.90
16315;DHT22;8266;52.150;4.768;2023-05-08T07:06:55;18.40;99.90
16315;DHT22;8266;52.150;4.768;2023-05-08T07:09:22;18.40;99.90
16315;DHT22;8266;52.150;4.768;2023-05-08T07:11:49;18.40;99.90
16315;DHT22;8266;52.150;4.768;2023-05-08T07:14:16;18.50;99.90
16315;DHT22;8266;52.150;4.768;2023-05-08T07:16:43;18.50;99.90
16315;DHT22;8266;52.150;4.768;2023-05-08T07:19:10;18.50;99.90
16315;DHT22;8266;52.150;4.768;2023-05-08T07:21:38;18.50;99.90
16315;DHT22;8266;52.150;4.768;2023-05-08T07:24:06;18.50;99.90
16315;DHT22;8266;52.150;4.768;2023-05-08T07:26:33;18.60;99.90
16315;DHT22;8266;52.150;4.768;2023-05-08T07:29:00;18.60;99.90
16315;DHT22;8266;52.150;4.768;2023-05-08T07:31:27;18.70;99.90
16315;DHT22;8266;52.150;4.768;2023-05-08T07:33:54;18.70;99.90
16315;DHT22;8266;52.150;4.768;2023-05-08T07:36:21;18.80;99.90
16315;DHT22;8266;52.150;4.768;2023-05-08T07:38:49;18.80;99.90
16315;DHT22;8266;52.150;4.768;2023-05-08T07:41:16;18.90;99.90
16315;DHT22;8266;52.150;4.768;2023-05-08T07:43:43;19.00;99.90
16315;DHT22;8266;52.150;4.768;2023-05-08T07:46:15;19.00;99.90
16315;DHT22;8266;52.150;4.768;2023-05-08T07:48:42;19.00;99.90
16315;DHT22;8266;52.150;4.768;2023-05-08T07:51:09;19.10;99.90
16315;DHT22;8266;52.150;4.768;2023-05-08T07:53:37;19.20;99.90
16315;DHT22;8266;52.150;4.768;2023-05-08T07:56:05;19.30;99.90
16315;DHT22;8266;52.150;4.768;2023-05-08T07:58:32;19.40;99.90
16315;DHT22;8266;52.150;4.768;2023-05-08T08:01:00;19.50;99.90
16315;DHT22;8266;52.150;4.768;2023-05-08T08:03:26;19.60;99.90
16315;DHT22;8266;52.150;4.768;2023-05-08T08:05:53;19.70;99.90
16315;DHT22;8266;52.150;4.768;2023-05-08T08:08:37;19.80;99.90
16315;DHT22;8266;52.150;4.768;2023-05-08T08:11:05;20.00;99.90
16315;DHT22;8266;52.150;4.768;2023-05-08T08:13:32;20.00;99.90
16315;DHT22;8266;52.150;4.768;2023-05-08T08:15:59;20.20;99.90
16315;DHT22;8266;52.150;4.768;2023-05-08T08:18:28;20.20;99.90
16315;DHT22;8266;52.150;4.768;2023-05-08T08:20:55;20.30;99.90
16315;DHT22;8266;52.150;4.768;2023-05-08T08:23:22;20.40;99.90
16315;DHT22;8266;52.150;4.768;2023-05-08T08:25:50;20.40;99.90
16315;DHT22;8266;52.150;4.768;2023-05-08T08:28:18;20.50;99.90
16315;DHT22;8266;52.150;4.768;2023-05-08T08:30:44;20.50;99.90
16315;DHT22;8266;52.150;4.768;2023-05-08T08:33:12;20.60;99.90
16315;DHT22;8266;52.150;4.768;2023-05-08T08:35:38;20.70;99.90
16315;DHT22;8266;52.150;4.768;2023-05-08T08:38:05;20.70;99.90
16315;DHT22;8266;52.150;4.768;2023-05-08T08:40:38;20.70;99.90
16315;DHT22;8266;52.150;4.768;2023-05-08T08:43:06;20.70;99.90
16315;DHT22;8266;52.150;4.768;2023-05-08T08:45:33;20.70;99.90
16315;DHT22;8266;52.150;4.768;2023-05-08T08:48:02;20.70;99.90
16315;DHT22;8266;52.150;4.768;2023-05-08T08:50:30;20.70;99.90
16315;DHT22;8266;52.150;4.768;2023-05-08T08:53:03;20.60;99.90
16315;DHT22;8266;52.150;4.768;2023-05-08T08:55:32;20.60;99.90
16315;DHT22;8266;52.150;4.768;2023-05-08T08:58:16;20.70;99.90
16315;DHT22;8266;52.150;4.768;2023-05-08T09:00:43;20.70;99.90
16315;DHT22;8266;52.150;4.768;2023-05-08T09:03:12;20.70;99.90
16315;DHT22;8266;52.150;4.768;2023-05-08T09:05:40;20.70;99.90
16315;DHT22;8266;52.150;4.768;2023-05-08T09:08:07;20.80;99.90
16315;DHT22;8266;52.150;4.768;2023-05-08T09:10:35;20.80;99.90
16315;DHT22;8266;52.150;4.768;2023-05-08T09:13:02;20.90;99.90
16315;DHT22;8266;52.150;4.768;2023-05-08T09:15:31;20.90;99.90
16315;DHT22;8266;52.150;4.768;2023-05-08T09:17:59;20.90;99.90
16315;DHT22;8266;52.150;4.768;2023-05-08T09:20:27;21.00;99.90
16315;DHT22;8266;52.150;4.768;2023-05-08T09:22:54;21.00;99.90
16315;DHT22;8266;52.150;4.768;2023-05-08T09:25:22;21.10;99.90
16315;DHT22;8266;52.150;4.768;2023-05-08T09:27:49;21.20;99.90
16315;DHT22;8266;52.150;4.768;2023-05-08T09:30:16;21.30;99.90
16315;DHT22;8266;52.150;4.768;2023-05-08T09:32:44;21.30;99.90
16315;DHT22;8266;52.150;4.768;2023-05-08T09:35:12;21.40;99.90
16315;DHT22;8266;52.150;4.768;2023-05-08T09:37:39;21.50;99.90
16315;DHT22;8266;52.150;4.768;2023-05-08T09:40:14;21.70;99.90
16315;DHT22;8266;52.150;4.768;2023-05-08T09:42:42;21.80;99.90
16315;DHT22;8266;52.150;4.768;2023-05-08T09:45:09;21.90;99.90
16315;DHT22;8266;52.150;4.768;2023-05-08T09:47:36;22.00;99.90
16315;DHT22;8266;52.150;4.768;2023-05-08T09:50:07;22.10;99.90
16315;DHT22;8266;52.150;4.768;2023-05-08T09:52:35;22.30;99.90
16315;DHT22;8266;52.150;4.768;2023-05-08T09:55:04;22.50;99.90
16315;DHT22;8266;52.150;4.768;2023-05-08T09:57:33;22.70;99.90
16315;DHT22;8266;52.150;4.768;2023-05-08T10:00:03;22.90;99.90
16315;DHT22;8266;52.150;4.768;2023-05-08T10:02:32;23.20;99.90
16315;DHT22;8266;52.150;4.768;2023-05-08T10:04:59;23.40;99.90
16315;DHT22;8266;52.150;4.768;2023-05-08T10:07:29;23.50;99.90
16315;DHT22;8266;52.150;4.768;2023-05-08T10:09:57;23.70;99.90
16315;DHT22;8266;52.150;4.768;2023-05-08T10:12:25;23.90;99.90
16315;DHT22;8266;52.150;4.768;2023-05-08T10:14:53;24.00;99.90
16315;DHT22;8266;52.150;4.768;2023-05-08T10:17:33;24.00;99.90
16315;DHT22;8266;52.150;4.768;2023-05-08T10:20:06;24.10;99.90
16315;DHT22;8266;52.150;4.768;2023-05-08T10:22:36;24.10;99.90
16315;DHT22;8266;52.150;4.768;2023-05-08T10:25:09;24.20;99.90
16315;DHT22;8266;52.150;4.768;2023-05-08T10:27:44;24.10;99.90
16315;DHT22;8266;52.150;4.768;2023-05-08T10:30:16;24.10;99.90
16315;DHT22;8266;52.150;4.768;2023-05-08T10:32:48;24.20;99.90
16315;DHT22;8266;52.150;4.768;2023-05-08T10:35:20;24.20;99.90
16315;DHT22;8266;52.150;4.768;2023-05-08T10:37:49;24.20;99.90
16315;DHT22;8266;52.150;4.768;2023-05-08T10:40:16;24.20;99.90
16315;DHT22;8266;52.150;4.768;2023-05-08T10:42:46;24.30;99.90
16315;DHT22;8266;52.150;4.768;2023-05-08T10:45:13;24.30;99.90
16315;DHT22;8266;52.150;4.768;2023-05-08T10:47:56;24.30;99.90
16315;DHT22;8266;52.150;4.768;2023-05-08T10:50:37;24.20;99.90
16315;DHT22;8266;52.150;4.768;2023-05-08T10:53:12;24.10;99.90
16315;DHT22;8266;52.150;4.768;2023-05-08T10:55:43;24.00;99.90
16315;DHT22;8266;52.150;4.768;2023-05-08T10:58:12;23.90;99.90
16315;DHT22;8266;52.150;4.768;2023-05-08T11:01:15;23.80;99.90
16315;DHT22;8266;52.150;4.768;2023-05-08T11:03:46;23.70;99.90
16315;DHT22;8266;52.150;4.768;2023-05-08T11:06:15;23.50;99.90
16315;DHT22;8266;52.150;4.768;2023-05-08T11:08:46;23.50;99.90
16315;DHT22;8266;52.150;4.768;2023-05-08T11:11:20;23.40;99.90
16315;DHT22;8266;52.150;4.768;2023-05-08T11:13:52;23.40;99.90
16315;DHT22;8266;52.150;4.768;2023-05-08T11:19:21;23.30;99.90
16315;DHT22;8266;52.150;4.768;2023-05-08T11:22:10;23.30;99.90
16315;DHT22;8266;52.150;4.768;2023-05-08T11:24:40;23.40;99.90
16315;DHT22;8266;52.150;4.768;2023-05-08T11:27:07;23.30;99.90
16315;DHT22;8266;52.150;4.768;2023-05-08T11:29:34;23.40;99.90
16315;DHT22;8266;52.150;4.768;2023-05-08T11:32:02;23.60;99.90
16315;DHT22;8266;52.150;4.768;2023-05-08T11:34:44;23.70;99.90
16315;DHT22;8266;52.150;4.768;2023-05-08T11:37:16;23.80;99.90
16315;DHT22;8266;52.150;4.768;2023-05-08T11:39:45;24.00;99.90
16315;DHT22;8266;52.150;4.768;2023-05-08T11:42:33;24.10;99.90
16315;DHT22;8266;52.150;4.768;2023-05-08T11:45:03;24.20;99.90
16315;DHT22;8266;52.150;4.768;2023-05-08T11:47:35;24.30;99.90
16315;DHT22;8266;52.150;4.768;2023-05-08T11:50:03;24.40;99.90
16315;DHT22;8266;52.150;4.768;2023-05-08T11:52:30;24.50;99.90
16315;DHT22;8266;52.150;4.768;2023-05-08T11:55:03;24.60;99.90
16315;DHT22;8266;52.150;4.768;2023-05-08T11:57:30;24.60;99.90
16315;DHT22;8266;52.150;4.768;2023-05-08T12:00:00;24.70;99.90
16315;DHT22;8266;52.150;4.768;2023-05-08T12:02:36;24.80;99.90
16315;DHT22;8266;52.150;4.768;2023-05-08T12:05:04;24.90;99.90
16315;DHT22;8266;52.150;4.768;2023-05-08T12:07:31;25.00;99.90
16315;DHT22;8266;52.150;4.768;2023-05-08T12:10:02;25.00;99.90
16315;DHT22;8266;52.150;4.768;2023-05-08T12:12:35;25.10;99.90
16315;DHT22;8266;52.150;4.768;2023-05-08T12:15:05;25.20;99.90
16315;DHT22;8266;52.150;4.768;2023-05-08T12:17:33;25.20;99.90
16315;DHT22;8266;52.150;4.768;2023-05-08T12:20:09;25.30;99.90
16315;DHT22;8266;52.150;4.768;2023-05-08T12:22:37;25.40;99.90
16315;DHT22;8266;52.150;4.768;2023-05-08T12:25:07;25.60;99.90
16315;DHT22;8266;52.150;4.768;2023-05-08T12:27:35;25.70;99.90
16315;DHT22;8266;52.150;4.768;2023-05-08T12:30:05;25.80;99.90
16315;DHT22;8266;52.150;4.768;2023-05-08T12:32:33;25.90;99.90
16315;DHT22;8266;52.150;4.768;2023-05-08T12:35:02;26.00;99.90
16315;DHT22;8266;52.150;4.768;2023-05-08T12:37:29;26.10;99.90
16315;DHT22;8266;52.150;4.768;2023-05-08T12:39:56;26.10;99.90
16315;DHT22;8266;52.150;4.768;2023-05-08T12:42:42;26.20;99.90
16315;DHT22;8266;52.150;4.768;2023-05-08T12:45:16;26.20;99.90
16315;DHT22;8266;52.150;4.768;2023-05-08T12:47:47;26.20;99.90
16315;DHT22;8266;52.150;4.768;2023-05-08T12:50:14;26.20;99.90
16315;DHT22;8266;52.150;4.768;2023-05-08T12:52:42;26.30;99.90
16315;DHT22;8266;52.150;4.768;2023-05-08T12:55:22;26.30;99.90
16315;DHT22;8266;52.150;4.768;2023-05-08T12:57:58;26.30;99.90
16315;DHT22;8266;52.150;4.768;2023-05-08T13:00:33;26.30;99.90
16315;DHT22;8266;52.150;4.768;2023-05-08T13:03:01;26.20;99.90
16315;DHT22;8266;52.150;4.768;2023-05-08T13:05:29;26.20;99.90
16315;DHT22;8266;52.150;4.768;2023-05-08T13:07:59;26.20;99.90
16315;DHT22;8266;52.150;4.768;2023-05-08T13:13:09;26.20;99.90
16315;DHT22;8266;52.150;4.768;2023-05-08T13:15:36;26.20;99.90
16315;DHT22;8266;52.150;4.768;2023-05-08T13:18:03;26.30;99.90
16315;DHT22;8266;52.150;4.768;2023-05-08T13:20:32;26.30;99.90
16315;DHT22;8266;52.150;4.768;2023-05-08T13:22:59;26.30;99.90
16315;DHT22;8266;52.150;4.768;2023-05-08T13:25:26;26.30;99.90
16315;DHT22;8266;52.150;4.768;2023-05-08T13:27:53;26.30;99.90
16315;DHT22;8266;52.150;4.768;2023-05-08T13:30:21;26.40;99.90
16315;DHT22;8266;52.150;4.768;2023-05-08T13:32:48;26.40;99.90
16315;DHT22;8266;52.150;4.768;2023-05-08T13:35:15;26.40;99.90
16315;DHT22;8266;52.150;4.768;2023-05-08T13:37:43;26.40;99.90
16315;DHT22;8266;52.150;4.768;2023-05-08T13:40:11;26.40;99.90
16315;DHT22;8266;52.150;4.768;2023-05-08T13:42:38;26.40;99.90
16315;DHT22;8266;52.150;4.768;2023-05-08T13:45:06;26.40;99.90
16315;DHT22;8266;52.150;4.768;2023-05-08T13:47:34;26.40;99.90
16315;DHT22;8266;52.150;4.768;2023-05-08T13:50:02;26.40;99.90
16315;DHT22;8266;52.150;4.768;2023-05-08T13:52:29;26.40;99.90
16315;DHT22;8266;52.150;4.768;2023-05-08T13:54:56;26.40;99.90
16315;DHT22;8266;52.150;4.768;2023-05-08T13:57:23;26.40;99.90
16315;DHT22;8266;52.150;4.768;2023-05-08T13:59:50;26.40;99.90
16315;DHT22;8266;52.150;4.768;2023-05-08T14:02:17;26.40;99.90
16315;DHT22;8266;52.150;4.768;2023-05-08T14:04:45;26.30;99.90
16315;DHT22;8266;52.150;4.768;2023-05-08T14:07:12;26.30;99.90
16315;DHT22;8266;52.150;4.768;2023-05-08T14:09:39;26.30;99.90
16315;DHT22;8266;52.150;4.768;2023-05-08T14:12:06;26.20;99.90
16315;DHT22;8266;52.150;4.768;2023-05-08T14:14:33;26.20;99.90
16315;DHT22;8266;52.150;4.768;2023-05-08T14:17:00;26.10;99.90
16315;DHT22;8266;52.150;4.768;2023-05-08T14:19:27;26.10;99.90
16315;DHT22;8266;52.150;4.768;2023-05-08T14:21:55;26.10;99.90
16315;DHT22;8266;52.150;4.768;2023-05-08T14:24:22;26.10;99.90
16315;DHT22;8266;52.150;4.768;2023-05-08T14:26:49;26.10;99.90
16315;DHT22;8266;52.150;4.768;2023-05-08T14:29:16;26.10;99.90
16315;DHT22;8266;52.150;4.768;2023-05-08T14:31:44;26.00;99.90
16315;DHT22;8266;52.150;4.768;2023-05-08T14:34:11;26.00;99.90
16315;DHT22;8266;52.150;4.768;2023-05-08T14:36:38;26.00;99.90
16315;DHT22;8266;52.150;4.768;2023-05-08T14:39:06;26.00;99.90
16315;DHT22;8266;52.150;4.768;2023-05-08T14:41:34;26.00;99.90
16315;DHT22;8266;52.150;4.768;2023-05-08T14:44:03;25.90;99.90
16315;DHT22;8266;52.150;4.768;2023-05-08T14:46:29;25.90;99.90
16315;DHT22;8266;52.150;4.768;2023-05-08T14:48:56;25.90;99.90
16315;DHT22;8266;52.150;4.768;2023-05-08T14:51:23;25.90;99.90
16315;DHT22;8266;52.150;4.768;2023-05-08T14:53:51;25.90;99.90
16315;DHT22;8266;52.150;4.768;2023-05-08T14:56:19;25.90;99.90
16315;DHT22;8266;52.150;4.768;2023-05-08T14:58:48;25.90;99.90
16315;DHT22;8266;52.150;4.768;2023-05-08T15:01:16;25.80;99.90
16315;DHT22;8266;52.150;4.768;2023-05-08T15:03:43;25.80;99.90
16315;DHT22;8266;52.150;4.768;2023-05-08T15:06:11;25.80;99.90
16315;DHT22;8266;52.150;4.768;2023-05-08T15:08:38;25.80;99.90
16315;DHT22;8266;52.150;4.768;2023-05-08T15:11:05;25.80;99.90
16315;DHT22;8266;52.150;4.768;2023-05-08T15:13:34;25.70;99.90
16315;DHT22;8266;52.150;4.768;2023-05-08T15:16:01;25.70;99.90
16315;DHT22;8266;52.150;4.768;2023-05-08T15:18:27;25.70;99.90
16315;DHT22;8266;52.150;4.768;2023-05-08T15:20:54;25.60;99.90
16315;DHT22;8266;52.150;4.768;2023-05-08T15:23:22;25.60;99.90
16315;DHT22;8266;52.150;4.768;2023-05-08T15:25:49;25.60;99.90
16315;DHT22;8266;52.150;4.768;2023-05-08T15:28:16;25.50;99.90
16315;DHT22;8266;52.150;4.768;2023-05-08T15:30:45;25.40;99.90
16315;DHT22;8266;52.150;4.768;2023-05-08T15:33:13;25.40;99.90
16315;DHT22;8266;52.150;4.768;2023-05-08T15:35:40;25.40;99.90
16315;DHT22;8266;52.150;4.768;2023-05-08T15:38:08;25.40;99.90
16315;DHT22;8266;52.150;4.768;2023-05-08T15:40:37;25.30;99.90
16315;DHT22;8266;52.150;4.768;2023-05-08T15:43:04;25.30;99.90
16315;DHT22;8266;52.150;4.768;2023-05-08T15:45:31;25.30;99.90
16315;DHT22;8266;52.150;4.768;2023-05-08T15:47:59;25.30;99.90
16315;DHT22;8266;52.150;4.768;2023-05-08T15:50:26;25.40;99.90
16315;DHT22;8266;52.150;4.768;2023-05-08T15:52:53;25.40;99.90
16315;DHT22;8266;52.150;4.768;2023-05-08T15:55:20;25.40;99.90
16315;DHT22;8266;52.150;4.768;2023-05-08T15:57:47;25.40;99.90
16315;DHT22;8266;52.150;4.768;2023-05-08T16:00:15;25.50;99.90
16315;DHT22;8266;52.150;4.768;2023-05-08T16:02:42;25.50;99.90
16315;DHT22;8266;52.150;4.768;2023-05-08T16:05:10;25.50;99.90